Dickert, Alabama
Current Conditions -  °F | °C
As of 9:55 AM on Thursday 23 Oct 2014 (Local Time) from KLGC Reporting Station
Clear Clear  
Wind Chill: 15°   Ceiling: Unl
Heat Index: 15°   Visibility: 10mi
Dew Point:   Wind: 3mph
Humidity: 64%   Direction: 100°E
Pressure: 30.15"   Gusts: NA
Location:  33.1661°N, 85.5111°W
Report Text: KLGC 231455Z AUTO 10003KT 10SM CLR 15/08 A3015 RMK AO2 T01510083
Loading
Personal Weather Stations






























Interactive Weather Map
Tropical Storm Tracking
New forecast layout! Learn more

10-Day Weather Forecast

Advertisements
Track Severe Weather on mobile